Time;durP1;ratioP1;P1;durP2;ratioP2;P2;SDS_P1;SDS_P2;PMS_P1;PMS_P2;Temp;Humidity;BMP_temperature;BMP_pressure;BME280_temperature;BME280_humidity;BME280_pressure;Samples;Min_cycle;Max_cycle;Signal;HPM_P1;HPM_P2
2023/09/06 00:01:34;;;;;;;8.30;4.70;;;;;;;12.14;77.89;99749.90;104834;1267;71037;-24
2023/09/06 00:04:03;;;;;;;8.90;5.70;;;;;;;12.23;76.50;99746.25;104775;1271;74348;-23
2023/09/06 00:06:31;;;;;;;11.80;5.90;;;;;;;12.07;76.63;99747.98;104854;1273;71428;-22
2023/09/06 00:08:58;;;;;;;10.20;5.90;;;;;;;11.85;76.89;99747.02;102865;1267;2803673;-23
2023/09/06 00:11:27;;;;;;;11.80;6.20;;;;;;;11.62;77.56;99750.31;104900;1267;61279;-23
2023/09/06 00:13:55;;;;;;;11.30;6.50;;;;;;;11.36;77.31;99749.20;104978;1269;72223;-23
2023/09/06 00:16:23;;;;;;;11.00;4.30;;;;;;;11.12;77.65;99752.36;105698;1261;74364;-23
2023/09/06 00:18:51;;;;;;;8.20;4.30;;;;;;;11.43;78.35;99757.02;105425;1261;72446;-23
2023/09/06 00:21:19;;;;;;;8.90;4.80;;;;;;;11.94;77.38;99755.23;105510;1262;61047;-23
2023/09/06 00:23:47;;;;;;;10.80;5.20;;;;;;;12.02;76.47;99754.91;105464;1264;61111;-23
2023/09/06 00:26:15;;;;;;;9.90;5.40;;;;;;;11.87;76.74;99758.88;105470;1264;71798;-24
2023/09/06 00:28:45;;;;;;;9.80;5.90;;;;;;;11.64;77.68;99764.36;105142;1263;74321;-23
2023/09/06 00:31:13;;;;;;;8.90;5.20;;;;;;;11.40;78.62;99765.23;105424;1261;72694;-23
2023/09/06 00:33:42;;;;;;;9.90;5.50;;;;;;;11.20;78.25;99765.17;105463;1261;62632;-23
2023/09/06 00:43:14;;;;;;;6.60;4.60;;;;;;;12.08;76.13;99764.23;102565;1292;601057;-22
2023/09/06 00:45:47;;;;;;;8.20;5.20;;;;;;;11.88;75.99;99763.11;104778;1272;61139;-21
2023/09/06 00:48:23;;;;;;;10.20;5.60;;;;;;;11.63;76.12;99765.33;104795;1272;61180;-21
2023/09/06 00:58:29;;;;;;;6.70;3.80;;;;;;;10.75;77.02;99764.34;102641;1291;599504;-21
2023/09/06 01:00:58;;;;;;;6.50;3.70;;;;;;;11.22;76.05;99769.52;105106;1265;61100;-21
2023/09/06 01:03:25;;;;;;;9.20;4.60;;;;;;;11.63;74.32;99767.20;104895;1269;61170;-21
2023/09/06 01:12:25;;;;;;;7.20;4.50;;;;;;;10.92;76.86;99772.21;102921;1292;600064;-21
2023/09/06 01:14:53;;;;;;;8.80;5.30;;;;;;;10.56;77.18;99770.56;104900;1267;61126;-23
2023/09/06 22:23:57;;;;;;;10.80;6.00;;;;;;;15.07;77.27;99707.58;102592;1294;600850;-23
2023/09/06 22:26:26;;;;;;;11.00;6.30;;;;;;;15.62;75.39;99706.11;104785;1267;61190;-23
2023/09/06 22:28:54;;;;;;;13.10;7.70;;;;;;;15.82;73.56;99702.99;104639;1274;61181;-23
2023/09/06 22:31:26;;;;;;;12.10;6.90;;;;;;;15.69;73.53;99707.78;104820;1266;72236;-23
2023/09/06 22:33:55;;;;;;;12.10;8.10;;;;;;;15.47;74.31;99706.53;104842;1267;73517;-23
2023/09/06 22:36:25;;;;;;;14.50;7.20;;;;;;;15.23;74.87;99704.79;104093;1268;2901936;-24
2023/09/06 22:46:36;;;;;;;14.10;7.40;;;;;;;15.73;74.66;99702.02;102563;1293;600107;-21
2023/09/06 22:49:04;;;;;;;14.80;7.50;;;;;;;15.75;73.88;99701.27;104817;1272;61072;-22
2023/09/06 22:51:32;;;;;;;14.40;8.00;;;;;;;15.55;73.78;99699.61;104861;1266;60963;-22
2023/09/06 22:54:00;;;;;;;14.70;8.00;;;;;;;15.27;74.88;99698.16;104794;1271;72224;-22
2023/09/06 22:56:28;;;;;;;14.00;8.40;;;;;;;14.99;76.02;99695.41;104831;1271;73227;-23
2023/09/06 22:58:56;;;;;;;13.80;8.50;;;;;;;14.74;76.66;99696.91;104778;1272;72679;-22
2023/09/06 23:01:24;;;;;;;12.60;6.40;;;;;;;14.59;77.98;99699.29;102650;1269;3012768;-22
2023/09/06 23:03:52;;;;;;;12.20;6.50;;;;;;;15.04;77.41;99698.66;105057;1267;61167;-22
2023/09/06 23:06:21;;;;;;;12.30;7.20;;;;;;;15.53;75.27;99700.63;105148;1268;70920;-22
2023/09/06 23:08:49;;;;;;;13.30;7.30;;;;;;;15.59;74.40;99699.59;105157;1269;73036;-22
2023/09/06 23:11:18;;;;;;;19.00;7.30;;;;;;;15.38;74.45;99700.70;104849;1270;71477;-22
2023/09/06 23:13:46;;;;;;;12.50;7.80;;;;;;;15.03;75.63;99703.58;105074;1277;61745;-22
2023/09/06 23:23:57;;;;;;;17.70;6.90;;;;;;;14.19;78.89;99707.61;102696;1295;600305;-21
2023/09/06 23:26:31;;;;;;;19.60;5.80;;;;;;;14.80;78.41;99704.90;105043;1267;61067;-21
2023/09/06 23:29:05;;;;;;;12.00;6.80;;;;;;;15.31;76.20;99707.92;104900;1264;61157;-21
2023/09/06 23:39:21;;;;;;;18.80;7.60;;;;;;;14.62;77.04;99705.25;102741;1289;600155;-21
2023/09/06 23:41:56;;;;;;;16.30;8.40;;;;;;;14.36;78.07;99709.23;104915;1270;61251;-22
2023/09/06 23:44:25;;;;;;;12.10;5.50;;;;;;;14.21;79.06;99713.03;104878;1270;61127;-22
2023/09/06 23:54:58;;;;;;;16.30;8.00;;;;;;;15.13;77.07;99710.61;102514;1294;616460;-21
2023/09/06 23:57:25;;;;;;;16.90;8.70;;;;;;;14.86;77.92;99714.95;105075;1268;61069;-21
2023/09/06 23:59:52;;;;;;;15.50;9.20;;;;;;;14.65;78.85;99716.38;105109;1268;61194;-21
